Time;durP1;ratioP1;P1;durP2;ratioP2;P2;SDS_P1;SDS_P2;PMS_P1;PMS_P2;Temp;Humidity;BMP_temperature;BMP_pressure;BME280_temperature;BME280_humidity;BME280_pressure;Samples;Min_cycle;Max_cycle;Signal;HPM_P1;HPM_P2
2022/04/29 00:00:20;;;;;;;29.45;15.55;;;;;;;9.51;94.71;101831.22;8352846;28;20048;-64
2022/04/29 00:04:21;;;;;;;29.13;14.30;;;;;;;9.43;94.92;101838.09;8351103;28;20033;-64
2022/04/29 00:08:21;;;;;;;28.67;15.60;;;;;;;9.20;96.92;101830.63;8352720;28;20787;-64
2022/04/29 00:12:22;;;;;;;35.75;15.48;;;;;;;9.04;97.12;101829.91;8361767;28;20044;-64
2022/04/29 00:16:22;;;;;;;30.77;15.25;;;;;;;9.14;98.17;101829.22;8390470;28;20040;-64
2022/04/29 00:20:23;;;;;;;38.30;16.60;;;;;;;8.90;99.37;101824.50;8400105;28;20115;-64
2022/04/29 00:24:23;;;;;;;33.63;16.05;;;;;;;9.01;100.00;101819.31;8353524;28;20485;-64
2022/04/29 00:28:24;;;;;;;30.08;16.10;;;;;;;9.03;98.44;101825.47;8358412;28;20052;-65
2022/04/29 00:32:25;;;;;;;32.03;15.60;;;;;;;9.04;98.15;101813.72;8358509;28;20090;-64
2022/04/29 00:36:25;;;;;;;28.55;16.60;;;;;;;9.07;98.42;101808.13;8357639;28;20493;-64
2022/04/29 00:40:30;;;;;;;30.23;15.57;;;;;;;8.84;100.00;101801.50;8356797;28;20449;-64
2022/04/29 00:44:30;;;;;;;32.92;15.35;;;;;;;8.95;99.26;101803.50;8357516;28;20040;-64
2022/04/29 00:48:30;;;;;;;27.60;13.75;;;;;;;8.92;97.73;101796.50;8366140;28;20037;-64
2022/04/29 00:52:32;;;;;;;27.48;14.45;;;;;;;8.86;99.54;101796.00;8366985;28;20064;-64
2022/04/29 00:56:36;;;;;;;34.67;14.88;;;;;;;8.54;100.00;101797.22;8361098;28;20032;-64
2022/04/29 01:00:38;;;;;;;34.03;14.65;;;;;;;8.56;100.00;101789.88;8361216;28;20037;-64
2022/04/29 01:04:52;;;;;;;26.98;14.45;;;;;;;8.39;100.00;101782.88;8362293;28;20410;-64
2022/04/29 01:08:52;;;;;;;34.07;15.33;;;;;;;8.45;100.00;101787.00;8369077;28;20394;-64
2022/04/29 01:12:56;;;;;;;34.65;16.70;;;;;;;8.16;100.00;101775.31;8367163;28;20547;-64
2022/04/29 01:16:58;;;;;;;32.67;15.95;;;;;;;8.47;100.00;101775.16;8366864;28;20044;-64
2022/04/29 01:21:03;;;;;;;30.52;16.02;;;;;;;8.52;100.00;101772.16;8350029;28;20060;-64
2022/04/29 01:25:04;;;;;;;38.60;17.08;;;;;;;8.79;100.00;101770.41;8367636;28;20512;-64
2022/04/29 01:29:07;;;;;;;34.20;15.68;;;;;;;8.38;100.00;101773.03;8362988;28;20033;-64
2022/04/29 01:33:09;;;;;;;33.40;16.33;;;;;;;8.49;100.00;101772.38;8367026;28;20757;-64
2022/04/29 01:37:09;;;;;;;31.95;15.77;;;;;;;8.89;100.00;101771.53;8350894;28;20041;-64
2022/04/29 01:41:10;;;;;;;30.50;15.35;;;;;;;8.39;100.00;101760.44;8366596;28;20562;-64
2022/04/29 01:45:10;;;;;;;32.95;16.25;;;;;;;8.20;100.00;101757.13;8354634;28;20047;-64
2022/04/29 01:49:11;;;;;;;39.13;16.63;;;;;;;8.24;100.00;101754.19;8359892;28;20374;-64
2022/04/29 01:53:11;;;;;;;31.92;15.32;;;;;;;8.79;100.00;101754.25;8359485;28;20040;-64
2022/04/29 01:57:12;;;;;;;30.38;16.08;;;;;;;8.53;100.00;101755.03;8359996;28;20040;-64
2022/04/29 02:01:13;;;;;;;31.70;15.95;;;;;;;8.09;100.00;101755.94;8359350;28;20079;-64
2022/04/29 02:05:14;;;;;;;40.30;18.20;;;;;;;8.01;100.00;101749.31;8358297;28;20044;-64
2022/04/29 02:09:14;;;;;;;40.83;18.20;;;;;;;8.08;100.00;101746.16;8359612;28;20029;-64
2022/04/29 02:13:15;;;;;;;34.63;17.30;;;;;;;8.18;100.00;101753.66;8374401;28;20025;-64
2022/04/29 02:17:15;;;;;;;35.03;17.80;;;;;;;7.90;100.00;101747.28;8373389;28;20028;-65
2022/04/29 02:21:16;;;;;;;40.58;17.58;;;;;;;8.10;100.00;101740.66;8373859;28;20033;-65
2022/04/29 02:25:16;;;;;;;31.38;14.75;;;;;;;8.25;100.00;101734.38;8357002;28;20129;-65
2022/04/29 02:29:17;;;;;;;34.67;15.38;;;;;;;7.80;100.00;101729.97;8358540;28;20097;-65
2022/04/29 02:33:17;;;;;;;37.92;17.25;;;;;;;8.01;100.00;101739.41;8362780;28;20056;-65
2022/04/29 02:37:18;;;;;;;38.80;17.57;;;;;;;7.92;100.00;101733.72;8365906;28;20519;-64
2022/04/29 02:41:18;;;;;;;33.95;16.95;;;;;;;7.75;100.00;101732.06;8378042;28;20275;-65
2022/04/29 02:45:18;;;;;;;30.38;14.73;;;;;;;7.89;100.00;101728.53;8381019;28;20497;-65
2022/04/29 02:49:19;;;;;;;35.97;17.58;;;;;;;7.86;100.00;101729.59;8356480;28;20116;-65
2022/04/29 02:53:19;;;;;;;31.48;14.73;;;;;;;7.86;100.00;101734.09;8356641;28;20037;-65
2022/04/29 02:57:20;;;;;;;31.25;16.83;;;;;;;8.17;100.00;101727.69;8353437;28;20033;-65
2022/04/29 03:01:20;;;;;;;36.50;16.75;;;;;;;8.37;100.00;101736.28;8356664;28;20055;-65
2022/04/29 03:05:20;;;;;;;35.38;16.42;;;;;;;8.31;100.00;101742.06;8356002;28;20045;-65
2022/04/29 03:09:21;;;;;;;31.77;15.73;;;;;;;8.03;100.00;101736.63;8358210;28;20037;-65
2022/04/29 03:13:21;;;;;;;40.28;16.85;;;;;;;7.88;100.00;101727.69;8372126;28;20087;-65
2022/04/29 03:18:22;;;;;;;39.97;17.15;;;;;;;7.90;100.00;101736.50;8387952;28;20123;-65
2022/04/29 03:21:42;;;;;;;39.05;17.58;;;;;;;7.95;100.00;101734.41;8370355;28;20041;-65
2022/04/29 03:25:42;;;;;;;36.28;16.90;;;;;;;8.15;100.00;101733.19;8358241;28;20087;-65
2022/04/29 03:29:43;;;;;;;32.28;16.27;;;;;;;8.02;100.00;101735.75;8356413;28;20231;-65
2022/04/29 03:33:43;;;;;;;31.40;16.73;;;;;;;7.78;100.00;101725.63;8357980;28;20127;-65
2022/04/29 03:37:45;;;;;;;34.92;17.50;;;;;;;7.72;100.00;101726.84;8356759;28;20037;-65
2022/04/29 03:41:45;;;;;;;40.92;18.70;;;;;;;7.93;100.00;101727.41;8356305;28;20053;-65
2022/04/29 03:45:46;;;;;;;36.33;18.42;;;;;;;7.98;100.00;101723.44;8371962;28;20032;-65
2022/04/29 03:49:46;;;;;;;35.10;17.40;;;;;;;8.13;100.00;101732.41;8384905;28;20036;-64
2022/04/29 03:53:48;;;;;;;37.45;18.67;;;;;;;8.12;100.00;101724.41;8362528;28;20071;-64
2022/04/29 03:57:49;;;;;;;37.20;17.67;;;;;;;7.91;100.00;101722.09;8394780;28;20101;-65
2022/04/29 04:01:51;;;;;;;35.85;18.20;;;;;;;7.81;100.00;101715.53;8380756;28;20064;-64
2022/04/29 04:06:52;;;;;;;32.50;17.38;;;;;;;7.71;100.00;101714.38;8373810;28;20043;-64
2022/04/29 04:10:13;;;;;;;41.83;18.30;;;;;;;8.01;100.00;101717.00;8375643;28;20040;-64
2022/04/29 04:14:13;;;;;;;40.50;19.60;;;;;;;7.90;100.00;101720.34;8369255;28;20071;-64
2022/04/29 04:18:13;;;;;;;32.85;17.38;;;;;;;7.76;100.00;101717.66;8395138;28;20041;-64
2022/04/29 04:22:14;;;;;;;35.97;16.88;;;;;;;8.02;100.00;101719.59;8388322;28;20036;-64
2022/04/29 04:26:14;;;;;;;32.97;15.88;;;;;;;8.07;100.00;101725.56;8393199;28;20098;-64
2022/04/29 04:30:15;;;;;;;30.92;16.02;;;;;;;7.68;100.00;101728.00;8374348;28;20028;-64
2022/04/29 04:35:17;;;;;;;35.20;14.85;;;;;;;7.67;100.00;101725.41;8356192;28;20044;-64
2022/04/29 04:38:36;;;;;;;27.98;14.02;;;;;;;7.88;100.00;101733.06;8380361;28;20064;-64
2022/04/29 04:42:45;;;;;;;32.35;15.68;;;;;;;8.14;100.00;101734.13;8374355;28;20082;-64
2022/04/29 04:46:45;;;;;;;31.42;16.85;;;;;;;8.05;100.00;101738.25;8385614;28;20032;-64
2022/04/29 04:50:46;;;;;;;27.60;15.77;;;;;;;8.26;100.00;101740.63;8377715;28;20068;-64
2022/04/29 04:54:46;;;;;;;34.08;16.08;;;;;;;8.46;100.00;101730.31;8359942;28;20040;-64
2022/04/29 04:58:47;;;;;;;40.25;17.35;;;;;;;8.58;100.00;101723.28;8379795;28;20119;-64
2022/04/29 05:02:47;;;;;;;30.10;15.85;;;;;;;8.69;100.00;101726.16;8365810;28;20056;-65
2022/04/29 05:06:47;;;;;;;28.88;15.50;;;;;;;8.48;100.00;101727.53;8362647;28;20553;-65
2022/04/29 05:10:49;;;;;;;36.88;16.98;;;;;;;8.24;100.00;101729.06;8361340;28;20037;-65
2022/04/29 05:14:49;;;;;;;30.40;15.32;;;;;;;8.29;100.00;101722.41;8366842;28;20033;-65
2022/04/29 05:18:49;;;;;;;33.80;17.25;;;;;;;8.37;100.00;101725.50;8363692;28;20071;-65
2022/04/29 05:22:50;;;;;;;31.83;16.30;;;;;;;8.44;100.00;101731.34;8371003;28;20085;-65
2022/04/29 05:26:50;;;;;;;28.70;15.13;;;;;;;8.77;100.00;101729.19;8361658;28;20140;-65
2022/04/29 05:30:51;;;;;;;36.50;16.23;;;;;;;8.97;100.00;101737.72;8362190;28;20037;-65
2022/04/29 05:34:52;;;;;;;33.92;13.93;;;;;;;9.66;100.00;101732.13;8372118;28;20036;-65
2022/04/29 05:43:12;;;;;;;32.75;16.70;;;;;;;9.19;100.00;101745.28;8356979;28;20067;-65
2022/04/29 05:47:13;;;;;;;35.28;17.63;;;;;;;9.30;100.00;101737.34;8359159;28;20047;-65
2022/04/29 05:51:13;;;;;;;36.60;17.98;;;;;;;9.44;100.00;101742.66;8361021;28;20033;-65
2022/04/29 05:55:14;;;;;;;40.45;18.92;;;;;;;9.57;100.00;101730.03;8392690;28;20033;-65
2022/04/29 05:59:14;;;;;;;43.05;18.90;;;;;;;9.69;100.00;101726.50;8361207;28;20033;-65
2022/04/29 06:03:15;;;;;;;42.28;18.60;;;;;;;9.87;100.00;101733.34;8359006;28;20627;-65
2022/04/29 06:07:15;;;;;;;40.75;18.33;;;;;;;9.78;100.00;101728.56;8360150;28;20515;-65
2022/04/29 06:11:16;;;;;;;44.05;19.15;;;;;;;10.03;100.00;101725.88;8363682;28;20045;-65
2022/04/29 06:15:17;;;;;;;36.72;18.55;;;;;;;10.13;100.00;101735.13;8362350;28;20516;-65
2022/04/29 06:19:17;;;;;;;43.67;18.10;;;;;;;10.28;99.96;101728.63;8363802;28;20343;-65
2022/04/29 06:23:18;;;;;;;37.25;19.08;;;;;;;10.39;100.00;101731.44;8365698;28;20100;-65
2022/04/29 06:27:18;;;;;;;43.25;19.05;;;;;;;10.46;97.84;101730.00;8358679;28;20441;-65
2022/04/29 06:31:19;;;;;;;41.72;19.05;;;;;;;10.59;97.19;101736.28;8364602;28;20524;-65
2022/04/29 06:35:19;;;;;;;44.50;20.40;;;;;;;10.68;97.55;101746.44;8357082;28;20060;-65
2022/04/29 06:39:19;;;;;;;38.20;19.58;;;;;;;10.68;100.00;101759.09;8363783;28;20045;-64
2022/04/29 06:43:20;;;;;;;51.00;21.90;;;;;;;10.82;100.00;101759.81;8376049;28;20051;-64
2022/04/29 06:47:20;;;;;;;44.70;21.20;;;;;;;10.87;100.00;101762.16;8357141;28;20090;-64
2022/04/29 06:51:22;;;;;;;49.33;21.60;;;;;;;11.01;100.00;101762.88;8367207;28;20052;-64
2022/04/29 06:55:22;;;;;;;41.83;21.15;;;;;;;11.02;100.00;101761.94;8362550;28;20375;-64
2022/04/29 06:59:22;;;;;;;38.75;21.80;;;;;;;11.12;97.33;101757.56;8358583;28;20045;-64
2022/04/29 07:03:23;;;;;;;40.83;20.95;;;;;;;11.43;95.58;101762.41;8356425;28;20052;-64
2022/04/29 07:07:25;;;;;;;45.53;21.40;;;;;;;11.51;92.36;101757.28;8361670;28;20040;-64
2022/04/29 07:11:26;;;;;;;35.58;20.42;;;;;;;11.66;91.38;101763.41;8363322;28;20044;-65
2022/04/29 07:15:26;;;;;;;40.00;20.67;;;;;;;11.92;89.11;101758.69;8352870;28;20083;-65
2022/04/29 07:19:26;;;;;;;37.60;21.17;;;;;;;12.22;90.45;101772.53;8353852;28;20037;-64
2022/04/29 07:23:27;;;;;;;40.42;21.02;;;;;;;12.23;90.68;101763.44;8366362;28;20033;-63
2022/04/29 07:27:28;;;;;;;33.38;20.77;;;;;;;12.01;88.54;101763.41;8361220;28;20063;-63
2022/04/29 07:31:29;;;;;;;41.97;22.05;;;;;;;12.00;90.12;101753.50;8366904;28;20032;-64
2022/04/29 07:44:10;;;;;;;33.78;20.60;;;;;;;12.63;87.07;101746.56;8373505;28;20078;-64
2022/04/29 07:48:11;;;;;;;38.55;19.38;;;;;;;12.61;85.77;101747.66;8360421;28;20124;-64
2022/04/29 07:52:12;;;;;;;36.17;19.67;;;;;;;12.68;86.22;101748.88;8398321;28;20056;-64
2022/04/29 07:56:12;;;;;;;38.72;21.02;;;;;;;12.83;85.89;101753.06;8363125;28;20036;-64
2022/04/29 08:00:13;;;;;;;39.40;20.63;;;;;;;12.77;85.94;101756.28;8365820;28;20029;-64
2022/04/29 08:04:14;;;;;;;34.53;19.85;;;;;;;12.96;85.69;101754.66;8363379;28;20760;-64
2022/04/29 08:08:14;;;;;;;43.92;22.20;;;;;;;12.86;86.39;101753.69;8379087;28;20401;-63
2022/04/29 08:12:15;;;;;;;38.97;21.90;;;;;;;12.93;87.90;101748.66;8361028;28;20067;-64
2022/04/29 08:16:15;;;;;;;42.10;21.70;;;;;;;13.13;86.80;101756.03;8366489;28;20119;-64
2022/04/29 08:20:16;;;;;;;42.80;20.70;;;;;;;13.25;87.14;101757.72;8375248;28;20474;-64
2022/04/29 08:24:16;;;;;;;48.97;22.02;;;;;;;13.36;85.48;101744.13;8382458;28;20053;-64
2022/04/29 08:28:18;;;;;;;37.03;21.33;;;;;;;13.71;85.49;101750.16;8392520;28;20059;-64
2022/04/29 08:32:18;;;;;;;44.35;22.00;;;;;;;14.01;84.67;101752.97;8361042;28;20036;-64
2022/04/29 08:36:19;;;;;;;40.00;20.85;;;;;;;13.85;81.67;101744.41;8392087;28;20508;-64
2022/04/29 08:40:20;;;;;;;47.10;22.73;;;;;;;13.69;82.44;101749.41;8385337;28;20041;-64
2022/04/29 08:44:20;;;;;;;41.20;22.55;;;;;;;13.64;82.34;101752.53;8359040;28;20588;-64
2022/04/29 08:48:21;;;;;;;37.72;21.17;;;;;;;13.50;81.85;101743.81;8367092;28;20055;-64
2022/04/29 08:52:21;;;;;;;41.83;22.75;;;;;;;13.46;82.31;101750.50;8379121;28;20167;-64
2022/04/29 09:00:44;;;;;;;41.90;21.20;;;;;;;13.70;82.54;101751.16;8365445;28;20283;-64
2022/04/29 09:04:44;;;;;;;40.83;21.73;;;;;;;13.82;81.23;101750.13;8377581;28;20040;-64
2022/04/29 09:08:46;;;;;;;40.25;22.98;;;;;;;13.99;83.99;101752.22;8380898;28;20064;-64
2022/04/29 09:12:46;;;;;;;38.05;21.60;;;;;;;14.15;82.51;101752.63;8364646;28;20401;-64
2022/04/29 09:16:48;;;;;;;42.28;23.02;;;;;;;14.38;81.00;101751.50;8367727;28;20037;-65
2022/04/29 09:20:51;;;;;;;42.30;22.55;;;;;;;14.47;81.01;101747.13;8368964;28;20033;-65
2022/04/29 09:25:00;;;;;;;32.80;20.70;;;;;;;14.73;77.94;101742.94;8359798;28;20041;-65
2022/04/29 09:29:18;;;;;;;36.95;22.15;;;;;;;15.14;80.81;101743.66;8366241;28;20480;-65
2022/04/29 09:33:21;;;;;;;34.00;20.73;;;;;;;15.19;76.31;101741.34;8363980;28;20044;-65
2022/04/29 09:37:24;;;;;;;41.92;20.70;;;;;;;15.41;75.71;101734.84;8364108;28;20048;-65
2022/04/29 09:41:25;;;;;;;36.55;19.63;;;;;;;16.15;73.85;101738.66;8367702;28;20032;-65
2022/04/29 09:45:26;;;;;;;44.40;21.10;;;;;;;16.54;71.79;101733.00;8365283;28;20535;-65
2022/04/29 09:49:28;;;;;;;31.23;18.83;;;;;;;16.57;69.22;101720.91;8357624;28;20029;-65
2022/04/29 09:53:28;;;;;;;35.33;20.45;;;;;;;16.29;71.39;101727.28;8361880;28;20060;-65
2022/04/29 09:57:29;;;;;;;31.65;19.98;;;;;;;16.02;72.68;101729.94;8357818;28;20037;-65
2022/04/29 10:01:29;;;;;;;43.58;22.65;;;;;;;15.69;73.84;101734.84;8360639;28;20579;-65
2022/04/29 10:05:31;;;;;;;47.70;21.98;;;;;;;15.68;75.93;101735.84;8366062;28;20051;-65
2022/04/29 10:09:35;;;;;;;41.30;23.17;;;;;;;15.47;75.00;101734.25;8366558;28;20045;-65
2022/04/29 10:13:38;;;;;;;38.13;23.07;;;;;;;15.37;76.00;101731.50;8363049;28;20032;-65
2022/04/29 10:22:03;;;;;;;38.13;21.33;;;;;;;15.62;76.60;101733.69;8363847;28;20033;-65
2022/04/29 10:26:05;;;;;;;38.72;22.40;;;;;;;16.08;74.79;101729.34;8369200;28;20041;-65
2022/04/29 10:30:07;;;;;;;38.55;20.90;;;;;;;16.57;74.43;101729.09;8357225;28;20040;-64
2022/04/29 10:34:30;;;;;;;46.13;20.88;;;;;;;16.68;72.81;101728.91;8358163;28;20041;-64
2022/04/29 10:38:34;;;;;;;41.83;20.03;;;;;;;16.76;71.68;101731.72;8371667;28;20059;-64
2022/04/29 10:43:13;;;;;;;39.17;21.23;;;;;;;16.15;72.12;101730.47;8361580;28;20029;-64
2022/04/29 10:47:25;;;;;;;42.92;20.60;;;;;;;16.37;73.50;101724.66;8358868;28;20041;-64
2022/04/29 10:55:38;;;;;;;40.10;19.25;;;;;;;18.68;65.70;101721.78;8400521;27;20350;-64
2022/04/29 11:00:00;;;;;;;31.48;16.70;;;;;;;19.58;64.09;101710.97;8379451;28;20148;-64
2022/04/29 11:04:01;;;;;;;33.55;17.38;;;;;;;19.32;61.98;101705.59;8370758;28;20112;-65
2022/04/29 11:08:10;;;;;;;33.30;17.38;;;;;;;18.52;63.57;101706.13;8355221;28;20155;-64
2022/04/29 11:12:28;;;;;;;32.53;17.80;;;;;;;18.52;63.44;101703.38;8354177;28;20044;-64
2022/04/29 11:16:48;;;;;;;28.58;16.90;;;;;;;18.69;62.16;101696.94;8371874;28;20106;-64
2022/04/29 11:20:52;;;;;;;34.70;16.70;;;;;;;18.94;61.22;101686.97;8410687;28;20091;-64
2022/04/29 11:24:53;;;;;;;28.88;15.77;;;;;;;18.95;60.17;101684.06;8371565;28;20440;-64
2022/04/29 11:28:54;;;;;;;25.73;16.15;;;;;;;20.08;59.70;101684.19;8373131;28;20040;-64
2022/04/29 11:32:54;;;;;;;29.75;17.42;;;;;;;19.30;60.91;101681.09;8388584;28;20033;-64
2022/04/29 11:36:56;;;;;;;29.83;16.67;;;;;;;19.05;62.69;101676.53;8413045;28;20171;-64
2022/04/29 11:41:00;;;;;;;26.58;15.98;;;;;;;18.68;62.80;101672.47;8364677;28;20304;-64
2022/04/29 11:45:06;;;;;;;28.70;16.60;;;;;;;19.10;61.28;101665.94;8354729;28;20037;-64
2022/04/29 11:49:06;;;;;;;26.85;15.70;;;;;;;19.07;59.60;101658.06;8346889;28;20521;-65
2022/04/29 11:53:10;;;;;;;26.27;15.63;;;;;;;19.26;59.65;101656.88;8347671;28;20469;-64
2022/04/29 11:57:17;;;;;;;30.83;16.05;;;;;;;19.16;59.62;101654.28;8353073;28;20127;-64
2022/04/29 12:01:19;;;;;;;32.10;17.48;;;;;;;18.60;61.88;101662.31;8362995;28;20414;-65
2022/04/29 12:05:23;;;;;;;29.50;15.90;;;;;;;18.25;62.19;101653.38;8352698;28;20029;-65
2022/04/29 12:09:33;;;;;;;30.10;15.35;;;;;;;18.28;61.12;101661.25;8327859;28;20047;-65
2022/04/29 12:13:36;;;;;;;32.00;15.77;;;;;;;18.20;60.20;101653.88;8366900;28;20052;-64
2022/04/29 12:17:39;;;;;;;31.40;14.70;;;;;;;17.84;62.02;101651.41;8362068;28;20044;-61
2022/04/29 12:21:53;;;;;;;65.85;35.25;;;;;;;18.24;61.81;101640.72;8330875;28;20041;-61
2022/04/29 12:25:54;;;;;;;25.17;15.52;;;;;;;18.04;60.44;101639.22;8345806;28;20043;-64
2022/04/29 12:35:16;;;;;;;34.17;17.45;;;;;;;17.64;62.09;101634.31;8348084;28;20068;-64
2022/04/29 12:38:37;;;;;;;28.80;16.80;;;;;;;17.61;62.16;101631.91;8323908;28;20033;-64
2022/04/29 12:42:37;;;;;;;70.85;37.03;;;;;;;17.84;61.02;101622.16;8333296;28;20033;-64
2022/04/29 12:46:38;;;;;;;28.85;15.23;;;;;;;17.90;61.34;101621.50;8344980;28;20071;-60
2022/04/29 12:50:40;;;;;;;29.67;14.60;;;;;;;17.80;61.02;101620.75;8354268;28;20037;-64
2022/04/29 12:54:40;;;;;;;21.67;13.93;;;;;;;17.68;61.41;101623.94;8350714;28;20045;-64
2022/04/29 12:58:44;;;;;;;26.42;14.57;;;;;;;17.77;62.09;101622.94;8387970;28;20519;-64
2022/04/29 13:02:45;;;;;;;27.83;14.63;;;;;;;17.50;62.46;101629.41;8381153;28;20037;-63
2022/04/29 13:06:45;;;;;;;26.20;14.23;;;;;;;17.56;62.81;101623.31;8338740;28;20067;-63
2022/04/29 13:10:49;;;;;;;32.80;15.25;;;;;;;17.50;63.23;101623.94;8338279;28;20366;-64
2022/04/29 13:14:49;;;;;;;29.75;15.15;;;;;;;17.54;63.37;101628.09;8327866;28;20042;-64
2022/04/29 13:18:51;;;;;;;30.08;14.23;;;;;;;17.49;62.55;101622.22;8358323;28;20528;-64
2022/04/29 13:22:52;;;;;;;29.58;14.65;;;;;;;17.29;63.13;101610.56;8355847;28;20049;-64
2022/04/29 13:26:53;;;;;;;27.90;13.90;;;;;;;17.27;62.38;101611.75;8320416;28;20421;-64
2022/04/29 13:30:53;;;;;;;29.80;15.45;;;;;;;17.32;63.08;101604.78;8339296;28;20041;-64
2022/04/29 13:34:54;;;;;;;28.13;13.90;;;;;;;17.23;63.37;101593.97;8368328;28;20053;-64
2022/04/29 13:38:55;;;;;;;30.23;14.57;;;;;;;17.40;64.16;101593.06;8340959;28;20029;-64
2022/04/29 13:42:57;;;;;;;29.70;14.27;;;;;;;17.08;63.60;101590.06;8384871;28;20068;-64
2022/04/29 13:46:58;;;;;;;27.05;13.82;;;;;;;17.11;64.89;101587.00;8371042;28;20382;-64
2022/04/29 13:50:58;;;;;;;33.67;13.05;;;;;;;17.08;63.55;101587.31;8383317;28;20037;-64
2022/04/29 13:54:59;;;;;;;33.83;14.20;;;;;;;16.90;63.23;101589.19;8343806;28;20048;-64
2022/04/29 13:59:02;;;;;;;29.87;13.13;;;;;;;16.80;63.93;101582.94;8347374;28;20056;-64
2022/04/29 14:03:02;;;;;;;32.00;13.25;;;;;;;16.74;63.83;101587.13;8337157;28;20346;-64
2022/04/29 14:07:03;;;;;;;28.92;13.85;;;;;;;16.66;64.28;101583.47;8353798;28;21006;-64
2022/04/29 14:11:03;;;;;;;27.30;11.68;;;;;;;16.66;64.68;101588.91;8354299;28;20737;-65
2022/04/29 14:15:06;;;;;;;29.23;12.35;;;;;;;16.65;64.56;101582.59;8356209;28;20120;-63
2022/04/29 14:19:06;;;;;;;24.15;12.02;;;;;;;16.56;64.60;101579.94;8355419;28;20035;-64
2022/04/29 14:23:07;;;;;;;28.83;12.13;;;;;;;16.58;65.43;101577.91;8355733;28;20045;-63
2022/04/29 14:27:07;;;;;;;24.70;11.68;;;;;;;16.54;65.28;101577.34;8353716;28;20276;-64
2022/04/29 14:31:08;;;;;;;26.33;11.02;;;;;;;16.64;65.55;101590.94;8355435;28;20037;-63
2022/04/29 14:35:10;;;;;;;27.08;11.05;;;;;;;16.52;65.00;101579.38;8335365;28;20520;-64
2022/04/29 14:39:11;;;;;;;21.30;11.13;;;;;;;16.45;64.49;101580.13;8352749;28;20043;-63
2022/04/29 14:43:13;;;;;;;23.57;10.47;;;;;;;16.43;64.96;101573.91;8354456;28;20036;-63
2022/04/29 14:47:14;;;;;;;23.48;10.80;;;;;;;16.43;64.82;101563.00;8354355;28;20288;-64
2022/04/29 14:51:14;;;;;;;41.88;16.48;;;;;;;16.51;64.30;101563.16;8348711;28;20041;-61
2022/04/29 14:55:15;;;;;;;32.80;11.95;;;;;;;16.60;64.18;101568.56;8356283;28;20061;-59
2022/04/29 14:59:16;;;;;;;21.45;10.15;;;;;;;16.78;63.49;101565.84;8352630;28;20509;-63
2022/04/29 15:03:17;;;;;;;13.95;8.77;;;;;;;16.80;62.85;101559.19;8351773;28;20060;-64
2022/04/29 15:07:18;;;;;;;24.60;9.07;;;;;;;16.72;60.67;101564.59;8348131;28;20522;-64
2022/04/29 15:15:42;;;;;;;19.30;9.32;;;;;;;16.58;61.34;101570.56;8331611;28;20045;-64
2022/04/29 15:19:43;;;;;;;17.60;8.25;;;;;;;16.69;61.04;101564.03;8338303;28;20473;-64
2022/04/29 15:23:43;;;;;;;22.52;8.00;;;;;;;16.71;60.44;101559.28;8319548;28;20041;-64
2022/04/29 15:27:44;;;;;;;14.57;8.33;;;;;;;16.86;60.46;101563.16;8346939;28;20047;-64
2022/04/29 15:31:44;;;;;;;21.55;8.25;;;;;;;16.93;59.55;101559.66;8340955;28;20741;-64
2022/04/29 15:35:46;;;;;;;21.88;9.15;;;;;;;16.79;58.98;101562.09;8343266;28;20051;-64
2022/04/29 15:39:47;;;;;;;15.27;8.32;;;;;;;16.79;60.15;101556.63;8351557;28;20036;-63
2022/04/29 15:43:47;;;;;;;14.43;7.95;;;;;;;16.70;60.01;101557.53;8351374;28;20044;-64
2022/04/29 15:47:47;;;;;;;25.47;8.40;;;;;;;16.71;60.15;101553.81;8347655;28;20033;-64
2022/04/29 15:51:48;;;;;;;19.83;8.88;;;;;;;16.68;59.79;101548.66;8334819;28;20773;-64
2022/04/29 15:55:51;;;;;;;20.63;8.90;;;;;;;16.47;60.71;101556.28;8383032;28;20040;-64
2022/04/29 15:59:52;;;;;;;26.63;9.32;;;;;;;16.55;61.14;101548.16;8386298;28;20446;-64
2022/04/29 16:03:52;;;;;;;24.10;10.00;;;;;;;16.50;62.06;101554.09;8326856;28;20605;-64
2022/04/29 16:07:54;;;;;;;20.52;9.05;;;;;;;16.35;62.36;101552.84;8334457;28;20266;-64
2022/04/29 16:11:54;;;;;;;19.70;8.50;;;;;;;16.42;62.83;101558.56;8363095;28;20127;-64
2022/04/29 16:15:58;;;;;;;21.00;9.98;;;;;;;16.40;62.58;101549.66;8366881;28;20368;-64
2022/04/29 16:21:00;;;;;;;18.35;9.45;;;;;;;16.34;63.72;101544.81;8310240;28;20036;-64
2022/04/29 16:25:51;;;;;;;16.50;9.23;;;;;;;16.23;63.96;101554.09;8367422;28;20063;-64
2022/04/29 16:28:40;;;;;;;25.70;10.32;;;;;;;16.18;64.72;101550.06;8352114;28;20044;-65
2022/04/29 16:32:40;;;;;;;26.88;11.63;;;;;;;16.07;64.93;101553.03;8355000;28;20226;-64
2022/04/29 16:36:43;;;;;;;23.50;10.75;;;;;;;15.99;65.79;101542.84;8353450;28;20041;-64
2022/04/29 16:40:44;;;;;;;27.90;11.23;;;;;;;15.94;65.94;101553.34;8352164;28;20041;-64
2022/04/29 16:44:45;;;;;;;26.65;10.55;;;;;;;15.92;66.82;101543.59;8349320;28;20080;-63
2022/04/29 16:48:46;;;;;;;22.58;10.70;;;;;;;15.86;66.90;101541.47;8352517;28;20040;-64
2022/04/29 16:52:47;;;;;;;27.30;11.55;;;;;;;15.81;67.56;101543.78;8353267;28;20033;-64
2022/04/29 17:01:12;;;;;;;22.50;11.63;;;;;;;15.59;67.77;101542.28;8345398;28;20049;-64
2022/04/29 17:05:12;;;;;;;22.20;10.45;;;;;;;15.46;67.38;101526.25;8329781;28;20087;-65
2022/04/29 17:09:13;;;;;;;23.48;11.73;;;;;;;15.40;68.15;101531.44;8345555;28;20464;-65
2022/04/29 17:13:14;;;;;;;23.27;10.75;;;;;;;15.35;68.43;101536.44;8335341;28;20071;-65
2022/04/29 17:17:16;;;;;;;32.10;11.50;;;;;;;15.29;68.75;101534.28;8346479;28;20127;-64
2022/04/29 17:21:18;;;;;;;25.33;11.10;;;;;;;15.23;69.15;101545.78;8346322;28;20052;-65
2022/04/29 17:25:19;;;;;;;23.50;10.43;;;;;;;15.16;68.04;101537.31;8346327;28;20033;-64
2022/04/29 17:29:19;;;;;;;18.63;10.10;;;;;;;15.09;68.88;101541.63;8322696;28;20060;-64
2022/04/29 17:33:21;;;;;;;24.48;11.05;;;;;;;15.02;67.98;101535.03;8344978;28;20126;-64
2022/04/29 17:37:23;;;;;;;21.67;10.88;;;;;;;14.97;67.74;101550.06;8344246;28;20612;-65
2022/04/29 17:42:29;;;;;;;22.58;10.68;;;;;;;14.86;67.22;101551.09;8345598;28;20037;-64
2022/04/29 17:45:43;;;;;;;22.02;9.95;;;;;;;14.75;67.82;101548.50;8346513;28;20128;-64
2022/04/29 17:50:15;;;;;;;27.67;11.15;;;;;;;14.70;68.80;101553.50;8379476;28;20224;-64
2022/04/29 17:54:05;;;;;;;21.80;11.48;;;;;;;14.65;69.33;101561.25;8344970;28;20044;-64
2022/04/29 17:58:07;;;;;;;25.17;12.15;;;;;;;14.48;72.83;101561.94;8347115;28;20044;-65
2022/04/29 18:02:07;;;;;;;25.42;12.00;;;;;;;14.12;75.69;101561.66;8343616;28;20037;-64
2022/04/29 18:06:08;;;;;;;26.95;13.23;;;;;;;13.78;77.75;101566.50;8342212;28;20041;-64
2022/04/29 18:10:10;;;;;;;25.45;13.93;;;;;;;13.57;80.04;101571.09;8348138;28;20033;-64
2022/04/29 18:14:10;;;;;;;29.30;15.35;;;;;;;13.40;82.24;101571.72;8344563;28;20041;-64
2022/04/29 18:18:11;;;;;;;29.23;14.80;;;;;;;13.24;83.62;101571.34;8348117;28;20124;-64
2022/04/29 18:22:14;;;;;;;22.38;14.88;;;;;;;13.16;85.53;101584.69;8342745;28;20057;-64
2022/04/29 18:26:15;;;;;;;27.75;15.50;;;;;;;13.04;86.41;101583.03;8344124;28;20049;-64
2022/04/29 18:30:16;;;;;;;32.70;16.20;;;;;;;12.89;89.08;101598.72;8346505;28;20044;-64
2022/04/29 18:34:18;;;;;;;29.77;16.13;;;;;;;12.80;90.65;101601.34;8345649;28;20067;-64
2022/04/29 18:38:18;;;;;;;37.70;16.48;;;;;;;12.74;90.51;101601.84;8347777;28;20045;-64
2022/04/29 18:42:19;;;;;;;32.65;15.27;;;;;;;12.71;91.18;101602.13;8349213;28;20722;-64
2022/04/29 18:46:20;;;;;;;26.95;15.23;;;;;;;12.62;91.98;101608.31;8349334;28;20116;-64
2022/04/29 18:50:20;;;;;;;32.08;16.67;;;;;;;12.58;92.79;101612.28;8330808;28;20045;-64
2022/04/29 18:54:21;;;;;;;31.98;17.35;;;;;;;12.59;93.51;101622.16;8350441;28;20041;-64
2022/04/29 18:58:21;;;;;;;31.70;16.00;;;;;;;12.54;94.88;101617.09;8347809;28;20445;-64